sensor_id;sensor_type;location;lat;lon;timestamp;P1;durP1;ratioP1;P2;durP2;ratioP2
35114;SDS011;21292;52.416;13.046;2022-09-21T00:01:20;19.05;;;13.07;;
35114;SDS011;21292;52.416;13.046;2022-09-21T00:03:52;17.55;;;12.82;;
35114;SDS011;21292;52.416;13.046;2022-09-21T00:06:21;19.05;;;13.05;;
35114;SDS011;21292;52.416;13.046;2022-09-21T00:08:49;15.27;;;11.63;;
35114;SDS011;21292;52.416;13.046;2022-09-21T00:11:18;17.48;;;13.10;;
35114;SDS011;21292;52.416;13.046;2022-09-21T00:13:50;20.33;;;13.15;;
35114;SDS011;21292;52.416;13.046;2022-09-21T00:16:21;32.03;;;15.38;;
35114;SDS011;21292;52.416;13.046;2022-09-21T00:18:51;22.27;;;14.00;;
35114;SDS011;21292;52.416;13.046;2022-09-21T00:21:19;22.35;;;13.57;;
35114;SDS011;21292;52.416;13.046;2022-09-21T00:23:47;21.80;;;13.02;;
35114;SDS011;21292;52.416;13.046;2022-09-21T00:26:16;21.17;;;13.35;;
35114;SDS011;21292;52.416;13.046;2022-09-21T00:28:46;18.83;;;11.82;;
35114;SDS011;21292;52.416;13.046;2022-09-21T00:31:15;21.00;;;11.50;;
35114;SDS011;21292;52.416;13.046;2022-09-21T00:33:43;20.73;;;12.77;;
35114;SDS011;21292;52.416;13.046;2022-09-21T00:36:14;24.10;;;12.85;;
35114;SDS011;21292;52.416;13.046;2022-09-21T00:38:43;19.00;;;12.13;;
35114;SDS011;21292;52.416;13.046;2022-09-21T00:41:12;21.35;;;12.18;;
35114;SDS011;21292;52.416;13.046;2022-09-21T00:43:42;16.58;;;12.10;;
35114;SDS011;21292;52.416;13.046;2022-09-21T00:48:41;14.43;;;10.25;;
35114;SDS011;21292;52.416;13.046;2022-09-21T00:51:11;17.13;;;9.75;;
35114;SDS011;21292;52.416;13.046;2022-09-21T00:53:41;21.52;;;10.80;;
35114;SDS011;21292;52.416;13.046;2022-09-21T00:56:10;14.15;;;9.88;;
35114;SDS011;21292;52.416;13.046;2022-09-21T00:58:39;16.30;;;10.55;;
35114;SDS011;21292;52.416;13.046;2022-09-21T01:01:11;17.63;;;10.95;;
35114;SDS011;21292;52.416;13.046;2022-09-21T01:03:41;13.32;;;9.77;;
35114;SDS011;21292;52.416;13.046;2022-09-21T01:06:11;12.88;;;10.00;;
35114;SDS011;21292;52.416;13.046;2022-09-21T01:08:41;15.18;;;10.05;;
35114;SDS011;21292;52.416;13.046;2022-09-21T01:11:15;14.43;;;10.07;;
35114;SDS011;21292;52.416;13.046;2022-09-21T01:13:56;13.50;;;9.15;;
35114;SDS011;21292;52.416;13.046;2022-09-21T01:19:04;16.40;;;11.38;;
35114;SDS011;21292;52.416;13.046;2022-09-21T01:21:42;17.55;;;11.10;;
35114;SDS011;21292;52.416;13.046;2022-09-21T01:24:21;16.13;;;10.90;;
35114;SDS011;21292;52.416;13.046;2022-09-21T01:27:17;13.13;;;10.23;;
35114;SDS011;21292;52.416;13.046;2022-09-21T01:30:14;18.25;;;11.00;;
35114;SDS011;21292;52.416;13.046;2022-09-21T01:32:45;16.38;;;10.98;;
35114;SDS011;21292;52.416;13.046;2022-09-21T01:35:16;15.90;;;10.77;;
35114;SDS011;21292;52.416;13.046;2022-09-21T01:37:46;19.77;;;11.73;;
35114;SDS011;21292;52.416;13.046;2022-09-21T01:40:17;17.20;;;11.50;;
35114;SDS011;21292;52.416;13.046;2022-09-21T01:42:47;17.67;;;11.40;;
35114;SDS011;21292;52.416;13.046;2022-09-21T01:45:20;14.15;;;10.40;;
35114;SDS011;21292;52.416;13.046;2022-09-21T01:47:50;15.23;;;10.65;;
35114;SDS011;21292;52.416;13.046;2022-09-21T01:50:18;14.93;;;9.63;;
35114;SDS011;21292;52.416;13.046;2022-09-21T01:52:48;14.13;;;9.93;;
35114;SDS011;21292;52.416;13.046;2022-09-21T01:55:20;18.48;;;11.65;;
35114;SDS011;21292;52.416;13.046;2022-09-21T01:57:54;20.70;;;11.07;;
35114;SDS011;21292;52.416;13.046;2022-09-21T02:00:26;17.73;;;10.15;;
35114;SDS011;21292;52.416;13.046;2022-09-21T02:02:56;20.88;;;11.77;;
35114;SDS011;21292;52.416;13.046;2022-09-21T02:05:27;18.85;;;11.93;;
35114;SDS011;21292;52.416;13.046;2022-09-21T02:07:56;23.48;;;14.07;;
35114;SDS011;21292;52.416;13.046;2022-09-21T02:10:25;23.40;;;14.73;;
35114;SDS011;21292;52.416;13.046;2022-09-21T02:12:56;21.02;;;12.45;;
35114;SDS011;21292;52.416;13.046;2022-09-21T02:15:31;17.60;;;12.30;;
35114;SDS011;21292;52.416;13.046;2022-09-21T02:18:03;23.60;;;11.20;;
35114;SDS011;21292;52.416;13.046;2022-09-21T02:20:34;19.50;;;11.98;;
35114;SDS011;21292;52.416;13.046;2022-09-21T02:23:04;17.20;;;11.45;;
35114;SDS011;21292;52.416;13.046;2022-09-21T02:25:40;17.08;;;11.23;;
35114;SDS011;21292;52.416;13.046;2022-09-21T02:28:15;16.75;;;10.77;;
35114;SDS011;21292;52.416;13.046;2022-09-21T02:30:52;14.63;;;10.05;;
35114;SDS011;21292;52.416;13.046;2022-09-21T02:33:25;16.10;;;10.07;;
35114;SDS011;21292;52.416;13.046;2022-09-21T02:35:58;17.83;;;10.68;;
35114;SDS011;21292;52.416;13.046;2022-09-21T02:38:31;16.90;;;11.00;;
35114;SDS011;21292;52.416;13.046;2022-09-21T02:41:03;21.17;;;11.13;;
35114;SDS011;21292;52.416;13.046;2022-09-21T02:43:35;17.50;;;10.75;;
35114;SDS011;21292;52.416;13.046;2022-09-21T02:46:07;21.85;;;11.27;;
35114;SDS011;21292;52.416;13.046;2022-09-21T02:48:38;14.98;;;10.38;;
35114;SDS011;21292;52.416;13.046;2022-09-21T02:51:10;19.00;;;12.50;;
35114;SDS011;21292;52.416;13.046;2022-09-21T02:53:40;18.90;;;11.82;;
35114;SDS011;21292;52.416;13.046;2022-09-21T02:56:09;17.52;;;10.35;;
35114;SDS011;21292;52.416;13.046;2022-09-21T02:58:38;14.60;;;10.95;;
35114;SDS011;21292;52.416;13.046;2022-09-21T03:01:10;19.27;;;11.55;;
35114;SDS011;21292;52.416;13.046;2022-09-21T03:03:39;19.52;;;10.73;;
35114;SDS011;21292;52.416;13.046;2022-09-21T03:06:07;17.13;;;10.55;;
35114;SDS011;21292;52.416;13.046;2022-09-21T03:08:36;16.23;;;9.48;;
35114;SDS011;21292;52.416;13.046;2022-09-21T03:11:04;16.73;;;9.98;;
35114;SDS011;21292;52.416;13.046;2022-09-21T03:13:32;29.80;;;10.13;;
35114;SDS011;21292;52.416;13.046;2022-09-21T03:16:03;12.30;;;9.57;;
35114;SDS011;21292;52.416;13.046;2022-09-21T03:18:34;16.42;;;10.02;;
35114;SDS011;21292;52.416;13.046;2022-09-21T03:21:02;11.80;;;8.73;;
35114;SDS011;21292;52.416;13.046;2022-09-21T03:23:30;17.33;;;10.88;;
35114;SDS011;21292;52.416;13.046;2022-09-21T03:25:58;16.52;;;10.75;;
35114;SDS011;21292;52.416;13.046;2022-09-21T03:28:26;19.90;;;10.50;;
35114;SDS011;21292;52.416;13.046;2022-09-21T03:30:54;16.92;;;9.55;;
35114;SDS011;21292;52.416;13.046;2022-09-21T03:33:22;22.42;;;10.52;;
35114;SDS011;21292;52.416;13.046;2022-09-21T03:35:53;14.88;;;9.60;;
35114;SDS011;21292;52.416;13.046;2022-09-21T03:38:21;15.63;;;8.52;;
35114;SDS011;21292;52.416;13.046;2022-09-21T03:40:50;14.30;;;8.55;;
35114;SDS011;21292;52.416;13.046;2022-09-21T03:43:18;19.77;;;8.73;;
35114;SDS011;21292;52.416;13.046;2022-09-21T03:45:46;17.92;;;9.50;;
35114;SDS011;21292;52.416;13.046;2022-09-21T03:48:14;11.38;;;8.18;;
35114;SDS011;21292;52.416;13.046;2022-09-21T03:50:43;21.13;;;11.40;;
35114;SDS011;21292;52.416;13.046;2022-09-21T03:53:12;16.95;;;9.15;;
35114;SDS011;21292;52.416;13.046;2022-09-21T03:55:40;13.85;;;8.98;;
35114;SDS011;21292;52.416;13.046;2022-09-21T03:58:09;12.13;;;8.02;;
35114;SDS011;21292;52.416;13.046;2022-09-21T04:00:37;12.93;;;8.05;;
35114;SDS011;21292;52.416;13.046;2022-09-21T04:03:05;11.45;;;7.75;;
35114;SDS011;21292;52.416;13.046;2022-09-21T04:05:34;18.42;;;8.95;;
35114;SDS011;21292;52.416;13.046;2022-09-21T04:08:02;17.48;;;8.93;;
35114;SDS011;21292;52.416;13.046;2022-09-21T04:10:31;13.48;;;8.52;;
35114;SDS011;21292;52.416;13.046;2022-09-21T04:12:59;13.00;;;9.18;;
35114;SDS011;21292;52.416;13.046;2022-09-21T04:15:28;16.77;;;9.65;;
35114;SDS011;21292;52.416;13.046;2022-09-21T04:17:56;113.95;;;53.10;;
35114;SDS011;21292;52.416;13.046;2022-09-21T04:20:25;55.70;;;26.88;;
35114;SDS011;21292;52.416;13.046;2022-09-21T04:22:53;34.38;;;18.23;;
35114;SDS011;21292;52.416;13.046;2022-09-21T04:25:21;16.40;;;9.77;;
35114;SDS011;21292;52.416;13.046;2022-09-21T04:27:50;11.43;;;8.60;;
35114;SDS011;21292;52.416;13.046;2022-09-21T04:30:18;15.55;;;8.98;;
35114;SDS011;21292;52.416;13.046;2022-09-21T04:32:46;10.82;;;7.65;;
35114;SDS011;21292;52.416;13.046;2022-09-21T04:35:14;14.55;;;8.73;;
35114;SDS011;21292;52.416;13.046;2022-09-21T04:37:42;13.23;;;9.25;;
35114;SDS011;21292;52.416;13.046;2022-09-21T04:40:10;13.13;;;8.30;;
35114;SDS011;21292;52.416;13.046;2022-09-21T04:42:39;14.43;;;8.35;;
35114;SDS011;21292;52.416;13.046;2022-09-21T04:45:09;10.52;;;7.78;;
35114;SDS011;21292;52.416;13.046;2022-09-21T04:47:37;13.30;;;8.15;;
35114;SDS011;21292;52.416;13.046;2022-09-21T04:50:06;11.50;;;8.43;;
35114;SDS011;21292;52.416;13.046;2022-09-21T04:52:35;13.93;;;8.07;;
35114;SDS011;21292;52.416;13.046;2022-09-21T04:55:03;12.73;;;8.05;;
35114;SDS011;21292;52.416;13.046;2022-09-21T04:57:32;15.43;;;9.05;;
35114;SDS011;21292;52.416;13.046;2022-09-21T05:00:01;15.15;;;9.00;;
35114;SDS011;21292;52.416;13.046;2022-09-21T05:02:32;15.07;;;8.07;;
35114;SDS011;21292;52.416;13.046;2022-09-21T05:05:00;12.43;;;8.85;;
35114;SDS011;21292;52.416;13.046;2022-09-21T05:07:28;15.20;;;8.80;;
35114;SDS011;21292;52.416;13.046;2022-09-21T05:09:56;15.40;;;9.00;;
35114;SDS011;21292;52.416;13.046;2022-09-21T05:12:29;14.88;;;9.27;;
35114;SDS011;21292;52.416;13.046;2022-09-21T05:14:57;14.25;;;10.27;;
35114;SDS011;21292;52.416;13.046;2022-09-21T05:17:25;18.83;;;10.18;;
35114;SDS011;21292;52.416;13.046;2022-09-21T05:19:54;17.73;;;11.07;;
35114;SDS011;21292;52.416;13.046;2022-09-21T05:22:23;18.90;;;11.02;;
35114;SDS011;21292;52.416;13.046;2022-09-21T05:24:51;22.05;;;10.73;;
35114;SDS011;21292;52.416;13.046;2022-09-21T05:27:19;15.43;;;10.25;;
35114;SDS011;21292;52.416;13.046;2022-09-21T05:29:47;17.10;;;9.68;;
35114;SDS011;21292;52.416;13.046;2022-09-21T05:32:17;18.90;;;9.20;;
35114;SDS011;21292;52.416;13.046;2022-09-21T05:34:51;17.75;;;10.13;;
35114;SDS011;21292;52.416;13.046;2022-09-21T05:37:35;24.95;;;9.45;;
35114;SDS011;21292;52.416;13.046;2022-09-21T05:40:07;15.77;;;8.32;;
35114;SDS011;21292;52.416;13.046;2022-09-21T05:42:37;16.63;;;8.95;;
35114;SDS011;21292;52.416;13.046;2022-09-21T05:45:06;17.55;;;8.18;;
35114;SDS011;21292;52.416;13.046;2022-09-21T05:47:37;13.38;;;6.65;;
35114;SDS011;21292;52.416;13.046;2022-09-21T05:50:15;7.90;;;4.95;;
35114;SDS011;21292;52.416;13.046;2022-09-21T05:53:02;14.65;;;5.78;;
35114;SDS011;21292;52.416;13.046;2022-09-21T05:55:42;5.93;;;5.03;;
35114;SDS011;21292;52.416;13.046;2022-09-21T05:58:17;6.07;;;4.55;;
35114;SDS011;21292;52.416;13.046;2022-09-21T06:00:51;9.88;;;4.80;;
35114;SDS011;21292;52.416;13.046;2022-09-21T06:03:25;8.38;;;4.88;;
35114;SDS011;21292;52.416;13.046;2022-09-21T06:05:56;7.43;;;3.90;;
35114;SDS011;21292;52.416;13.046;2022-09-21T06:08:25;13.90;;;4.45;;
35114;SDS011;21292;52.416;13.046;2022-09-21T06:10:53;7.72;;;3.83;;
35114;SDS011;21292;52.416;13.046;2022-09-21T06:13:21;7.95;;;4.20;;
35114;SDS011;21292;52.416;13.046;2022-09-21T06:15:49;11.93;;;4.60;;
35114;SDS011;21292;52.416;13.046;2022-09-21T06:18:18;6.40;;;3.85;;
35114;SDS011;21292;52.416;13.046;2022-09-21T06:20:46;6.20;;;3.90;;
35114;SDS011;21292;52.416;13.046;2022-09-21T06:23:15;10.77;;;4.18;;
35114;SDS011;21292;52.416;13.046;2022-09-21T06:25:43;7.20;;;4.00;;
35114;SDS011;21292;52.416;13.046;2022-09-21T06:28:11;6.55;;;3.67;;
35114;SDS011;21292;52.416;13.046;2022-09-21T06:30:39;11.57;;;4.13;;
35114;SDS011;21292;52.416;13.046;2022-09-21T06:33:10;5.97;;;3.92;;
35114;SDS011;21292;52.416;13.046;2022-09-21T06:35:38;6.95;;;3.90;;
35114;SDS011;21292;52.416;13.046;2022-09-21T06:38:07;7.53;;;3.08;;
35114;SDS011;21292;52.416;13.046;2022-09-21T06:40:36;6.97;;;4.03;;
35114;SDS011;21292;52.416;13.046;2022-09-21T06:43:04;6.50;;;4.30;;
35114;SDS011;21292;52.416;13.046;2022-09-21T06:45:32;7.25;;;4.15;;
35114;SDS011;21292;52.416;13.046;2022-09-21T06:48:01;9.05;;;4.45;;
35114;SDS011;21292;52.416;13.046;2022-09-21T06:50:29;7.65;;;4.78;;
35114;SDS011;21292;52.416;13.046;2022-09-21T06:52:58;9.05;;;4.80;;
35114;SDS011;21292;52.416;13.046;2022-09-21T06:55:26;10.98;;;5.13;;
35114;SDS011;21292;52.416;13.046;2022-09-21T06:57:59;10.23;;;5.90;;
35114;SDS011;21292;52.416;13.046;2022-09-21T07:00:28;13.65;;;5.60;;
35114;SDS011;21292;52.416;13.046;2022-09-21T07:02:57;9.20;;;5.00;;
35114;SDS011;21292;52.416;13.046;2022-09-21T07:05:25;11.38;;;6.00;;
35114;SDS011;21292;52.416;13.046;2022-09-21T07:07:55;10.05;;;6.28;;
35114;SDS011;21292;52.416;13.046;2022-09-21T07:10:24;15.52;;;6.50;;
35114;SDS011;21292;52.416;13.046;2022-09-21T07:12:52;11.63;;;5.97;;
35114;SDS011;21292;52.416;13.046;2022-09-21T07:15:21;10.68;;;5.75;;
35114;SDS011;21292;52.416;13.046;2022-09-21T07:17:50;9.55;;;5.88;;
35114;SDS011;21292;52.416;13.046;2022-09-21T07:20:31;10.63;;;6.60;;
35114;SDS011;21292;52.416;13.046;2022-09-21T07:22:59;9.15;;;6.22;;
35114;SDS011;21292;52.416;13.046;2022-09-21T07:25:27;9.15;;;6.45;;
35114;SDS011;21292;52.416;13.046;2022-09-21T07:27:55;9.10;;;5.72;;
35114;SDS011;21292;52.416;13.046;2022-09-21T07:30:28;8.30;;;5.32;;
35114;SDS011;21292;52.416;13.046;2022-09-21T07:32:56;12.88;;;6.22;;
35114;SDS011;21292;52.416;13.046;2022-09-21T07:35:51;14.07;;;8.77;;
35114;SDS011;21292;52.416;13.046;2022-09-21T07:38:19;16.70;;;6.65;;
35114;SDS011;21292;52.416;13.046;2022-09-21T07:40:47;8.60;;;5.63;;
35114;SDS011;21292;52.416;13.046;2022-09-21T07:43:18;9.68;;;5.25;;
35114;SDS011;21292;52.416;13.046;2022-09-21T07:45:52;12.75;;;4.97;;
35114;SDS011;21292;52.416;13.046;2022-09-21T07:48:21;11.60;;;4.78;;
35114;SDS011;21292;52.416;13.046;2022-09-21T07:50:50;5.55;;;3.65;;
35114;SDS011;21292;52.416;13.046;2022-09-21T07:53:18;7.28;;;4.47;;
35114;SDS011;21292;52.416;13.046;2022-09-21T07:55:46;8.82;;;3.47;;
35114;SDS011;21292;52.416;13.046;2022-09-21T07:58:14;5.63;;;3.88;;
35114;SDS011;21292;52.416;13.046;2022-09-21T08:01:04;7.47;;;3.05;;
35114;SDS011;21292;52.416;13.046;2022-09-21T08:03:33;5.10;;;3.67;;
35114;SDS011;21292;52.416;13.046;2022-09-21T08:06:01;8.50;;;4.30;;
35114;SDS011;21292;52.416;13.046;2022-09-21T08:08:29;5.80;;;3.67;;
35114;SDS011;21292;52.416;13.046;2022-09-21T08:11:00;7.50;;;4.32;;
35114;SDS011;21292;52.416;13.046;2022-09-21T08:13:29;5.65;;;4.15;;
35114;SDS011;21292;52.416;13.046;2022-09-21T08:15:58;7.18;;;4.60;;
35114;SDS011;21292;52.416;13.046;2022-09-21T08:18:28;8.68;;;5.40;;
35114;SDS011;21292;52.416;13.046;2022-09-21T08:20:57;7.90;;;4.15;;
35114;SDS011;21292;52.416;13.046;2022-09-21T08:23:26;7.50;;;3.92;;
35114;SDS011;21292;52.416;13.046;2022-09-21T08:25:57;7.63;;;4.00;;
35114;SDS011;21292;52.416;13.046;2022-09-21T08:28:26;9.73;;;4.10;;
35114;SDS011;21292;52.416;13.046;2022-09-21T08:30:57;8.20;;;3.88;;
35114;SDS011;21292;52.416;13.046;2022-09-21T08:33:27;6.43;;;4.18;;
35114;SDS011;21292;52.416;13.046;2022-09-21T08:35:58;7.82;;;4.28;;
35114;SDS011;21292;52.416;13.046;2022-09-21T08:38:30;5.97;;;3.50;;
35114;SDS011;21292;52.416;13.046;2022-09-21T08:41:00;6.00;;;4.13;;
35114;SDS011;21292;52.416;13.046;2022-09-21T08:43:30;6.95;;;3.47;;
35114;SDS011;21292;52.416;13.046;2022-09-21T08:45:59;5.55;;;3.60;;
35114;SDS011;21292;52.416;13.046;2022-09-21T08:48:33;8.00;;;3.10;;
35114;SDS011;21292;52.416;13.046;2022-09-21T08:51:06;6.18;;;3.72;;
35114;SDS011;21292;52.416;13.046;2022-09-21T08:53:37;5.95;;;3.70;;
35114;SDS011;21292;52.416;13.046;2022-09-21T08:56:07;3.63;;;3.13;;
35114;SDS011;21292;52.416;13.046;2022-09-21T08:58:35;4.97;;;3.13;;
35114;SDS011;21292;52.416;13.046;2022-09-21T09:01:12;6.60;;;3.05;;
35114;SDS011;21292;52.416;13.046;2022-09-21T09:03:57;5.95;;;3.05;;
35114;SDS011;21292;52.416;13.046;2022-09-21T09:06:42;7.18;;;2.70;;
35114;SDS011;21292;52.416;13.046;2022-09-21T09:09:18;4.35;;;3.10;;
35114;SDS011;21292;52.416;13.046;2022-09-21T09:12:02;3.45;;;2.58;;
35114;SDS011;21292;52.416;13.046;2022-09-21T09:14:41;3.58;;;2.20;;
35114;SDS011;21292;52.416;13.046;2022-09-21T09:19:54;5.60;;;2.67;;
35114;SDS011;21292;52.416;13.046;2022-09-21T09:22:28;3.70;;;2.33;;
35114;SDS011;21292;52.416;13.046;2022-09-21T09:24:59;6.00;;;2.55;;
35114;SDS011;21292;52.416;13.046;2022-09-21T09:27:31;4.05;;;2.90;;
35114;SDS011;21292;52.416;13.046;2022-09-21T09:30:03;7.07;;;2.92;;
35114;SDS011;21292;52.416;13.046;2022-09-21T09:32:33;4.72;;;2.67;;
35114;SDS011;21292;52.416;13.046;2022-09-21T09:35:06;3.70;;;2.20;;
35114;SDS011;21292;52.416;13.046;2022-09-21T09:37:44;3.67;;;2.20;;
35114;SDS011;21292;52.416;13.046;2022-09-21T09:40:14;4.53;;;2.80;;
35114;SDS011;21292;52.416;13.046;2022-09-21T09:42:47;4.25;;;2.42;;
35114;SDS011;21292;52.416;13.046;2022-09-21T09:45:28;8.45;;;2.55;;
35114;SDS011;21292;52.416;13.046;2022-09-21T09:48:05;3.63;;;2.55;;
35114;SDS011;21292;52.416;13.046;2022-09-21T09:50:43;4.28;;;2.40;;
35114;SDS011;21292;52.416;13.046;2022-09-21T09:53:12;5.38;;;3.00;;
35114;SDS011;21292;52.416;13.046;2022-09-21T09:55:43;2.45;;;1.80;;
35114;SDS011;21292;52.416;13.046;2022-09-21T09:58:16;2.72;;;2.10;;
35114;SDS011;21292;52.416;13.046;2022-09-21T10:04:06;2.95;;;2.65;;
35114;SDS011;21292;52.416;13.046;2022-09-21T10:06:36;3.10;;;2.58;;
35114;SDS011;21292;52.416;13.046;2022-09-21T10:09:16;2.17;;;2.05;;
35114;SDS011;21292;52.416;13.046;2022-09-21T10:11:47;3.47;;;2.28;;
35114;SDS011;21292;52.416;13.046;2022-09-21T10:14:16;4.15;;;2.30;;
35114;SDS011;21292;52.416;13.046;2022-09-21T10:16:46;3.95;;;2.17;;
35114;SDS011;21292;52.416;13.046;2022-09-21T10:19:18;3.20;;;2.30;;
35114;SDS011;21292;52.416;13.046;2022-09-21T10:21:50;2.95;;;2.50;;
35114;SDS011;21292;52.416;13.046;2022-09-21T10:24:23;2.92;;;2.08;;
35114;SDS011;21292;52.416;13.046;2022-09-21T10:26:53;3.22;;;2.25;;
35114;SDS011;21292;52.416;13.046;2022-09-21T10:29:28;3.28;;;2.30;;
35114;SDS011;21292;52.416;13.046;2022-09-21T10:31:58;4.55;;;2.03;;
35114;SDS011;21292;52.416;13.046;2022-09-21T10:34:27;2.95;;;1.80;;
35114;SDS011;21292;52.416;13.046;2022-09-21T10:36:58;3.22;;;2.17;;
35114;SDS011;21292;52.416;13.046;2022-09-21T10:39:28;2.38;;;1.80;;
35114;SDS011;21292;52.416;13.046;2022-09-21T10:41:58;2.70;;;2.10;;
35114;SDS011;21292;52.416;13.046;2022-09-21T10:44:32;3.30;;;1.92;;
35114;SDS011;21292;52.416;13.046;2022-09-21T10:49:49;3.05;;;1.40;;
35114;SDS011;21292;52.416;13.046;2022-09-21T10:52:21;2.20;;;1.58;;
35114;SDS011;21292;52.416;13.046;2022-09-21T10:54:52;2.08;;;1.60;;
35114;SDS011;21292;52.416;13.046;2022-09-21T10:57:22;1.70;;;1.45;;
35114;SDS011;21292;52.416;13.046;2022-09-21T10:59:52;2.95;;;1.30;;
35114;SDS011;21292;52.416;13.046;2022-09-21T11:05:13;1.77;;;1.33;;
35114;SDS011;21292;52.416;13.046;2022-09-21T11:07:47;3.67;;;1.60;;
35114;SDS011;21292;52.416;13.046;2022-09-21T11:10:19;1.67;;;1.23;;
35114;SDS011;21292;52.416;13.046;2022-09-21T11:12:54;0.73;;;0.73;;
35114;SDS011;21292;52.416;13.046;2022-09-21T11:15:53;1.55;;;1.20;;
35114;SDS011;21292;52.416;13.046;2022-09-21T11:18:27;1.98;;;1.45;;
35114;SDS011;21292;52.416;13.046;2022-09-21T11:21:02;1.40;;;1.30;;
35114;SDS011;21292;52.416;13.046;2022-09-21T11:23:38;4.60;;;1.23;;
35114;SDS011;21292;52.416;13.046;2022-09-21T11:26:11;1.27;;;0.90;;
35114;SDS011;21292;52.416;13.046;2022-09-21T11:28:44;5.03;;;1.77;;
35114;SDS011;21292;52.416;13.046;2022-09-21T11:31:22;0.93;;;0.90;;
35114;SDS011;21292;52.416;13.046;2022-09-21T11:34:19;1.35;;;1.20;;
35114;SDS011;21292;52.416;13.046;2022-09-21T11:36:55;1.77;;;1.10;;
35114;SDS011;21292;52.416;13.046;2022-09-21T11:39:38;4.63;;;1.48;;
35114;SDS011;21292;52.416;13.046;2022-09-21T11:42:20;2.25;;;1.10;;
35114;SDS011;21292;52.416;13.046;2022-09-21T11:44:59;3.80;;;1.20;;
35114;SDS011;21292;52.416;13.046;2022-09-21T11:47:46;2.13;;;1.00;;
35114;SDS011;21292;52.416;13.046;2022-09-21T11:53:27;0.75;;;0.75;;
35114;SDS011;21292;52.416;13.046;2022-09-21T11:59:16;1.23;;;0.68;;
35114;SDS011;21292;52.416;13.046;2022-09-21T12:02:15;2.30;;;0.93;;
35114;SDS011;21292;52.416;13.046;2022-09-21T12:04:50;1.25;;;0.80;;
35114;SDS011;21292;52.416;13.046;2022-09-21T12:07:25;2.80;;;1.10;;
35114;SDS011;21292;52.416;13.046;2022-09-21T12:10:05;4.03;;;0.93;;
35114;SDS011;21292;52.416;13.046;2022-09-21T12:12:45;3.40;;;0.90;;
35114;SDS011;21292;52.416;13.046;2022-09-21T12:15:17;1.10;;;1.00;;
35114;SDS011;21292;52.416;13.046;2022-09-21T12:17:49;1.10;;;1.00;;
35114;SDS011;21292;52.416;13.046;2022-09-21T12:20:25;2.25;;;0.70;;
35114;SDS011;21292;52.416;13.046;2022-09-21T12:22:59;1.50;;;0.70;;
35114;SDS011;21292;52.416;13.046;2022-09-21T12:25:30;1.30;;;0.70;;
35114;SDS011;21292;52.416;13.046;2022-09-21T12:28:04;0.77;;;0.75;;
35114;SDS011;21292;52.416;13.046;2022-09-21T12:30:35;0.75;;;0.70;;
35114;SDS011;21292;52.416;13.046;2022-09-21T12:33:05;3.28;;;0.80;;
35114;SDS011;21292;52.416;13.046;2022-09-21T12:35:39;0.82;;;0.73;;
35114;SDS011;21292;52.416;13.046;2022-09-21T12:38:11;1.27;;;0.70;;
35114;SDS011;21292;52.416;13.046;2022-09-21T12:40:43;4.35;;;0.90;;
35114;SDS011;21292;52.416;13.046;2022-09-21T12:43:20;1.40;;;0.70;;
35114;SDS011;21292;52.416;13.046;2022-09-21T12:45:55;0.68;;;0.57;;
35114;SDS011;21292;52.416;13.046;2022-09-21T12:48:29;1.55;;;0.60;;
35114;SDS011;21292;52.416;13.046;2022-09-21T12:51:00;1.23;;;0.93;;
35114;SDS011;21292;52.416;13.046;2022-09-21T12:53:33;2.28;;;0.60;;
35114;SDS011;21292;52.416;13.046;2022-09-21T12:56:04;2.47;;;0.93;;
35114;SDS011;21292;52.416;13.046;2022-09-21T12:58:44;1.33;;;0.82;;
35114;SDS011;21292;52.416;13.046;2022-09-21T13:01:20;0.70;;;0.70;;
35114;SDS011;21292;52.416;13.046;2022-09-21T13:03:57;0.77;;;0.75;;
35114;SDS011;21292;52.416;13.046;2022-09-21T13:06:41;0.82;;;0.80;;
35114;SDS011;21292;52.416;13.046;2022-09-21T13:09:19;0.50;;;0.50;;
35114;SDS011;21292;52.416;13.046;2022-09-21T13:11:48;0.93;;;0.70;;
35114;SDS011;21292;52.416;13.046;2022-09-21T13:14:21;1.23;;;0.70;;
35114;SDS011;21292;52.416;13.046;2022-09-21T13:16:53;0.75;;;0.75;;
35114;SDS011;21292;52.416;13.046;2022-09-21T13:19:23;0.73;;;0.63;;
35114;SDS011;21292;52.416;13.046;2022-09-21T13:22:18;0.40;;;0.40;;
35114;SDS011;21292;52.416;13.046;2022-09-21T13:25:04;0.40;;;0.40;;
35114;SDS011;21292;52.416;13.046;2022-09-21T13:30:32;1.00;;;0.65;;
35114;SDS011;21292;52.416;13.046;2022-09-21T13:33:03;3.80;;;0.60;;
35114;SDS011;21292;52.416;13.046;2022-09-21T13:35:51;0.93;;;0.50;;
35114;SDS011;21292;52.416;13.046;2022-09-21T13:38:29;0.45;;;0.40;;
35114;SDS011;21292;52.416;13.046;2022-09-21T13:41:00;1.42;;;0.60;;
35114;SDS011;21292;52.416;13.046;2022-09-21T13:46:48;1.17;;;0.95;;
35114;SDS011;21292;52.416;13.046;2022-09-21T13:49:38;1.13;;;0.50;;
35114;SDS011;21292;52.416;13.046;2022-09-21T13:52:27;1.95;;;0.65;;
35114;SDS011;21292;52.416;13.046;2022-09-21T13:54:58;0.70;;;0.70;;
35114;SDS011;21292;52.416;13.046;2022-09-21T13:57:29;0.75;;;0.57;;
35114;SDS011;21292;52.416;13.046;2022-09-21T14:00:03;0.45;;;0.45;;
35114;SDS011;21292;52.416;13.046;2022-09-21T14:02:37;0.65;;;0.50;;
35114;SDS011;21292;52.416;13.046;2022-09-21T14:05:08;1.00;;;0.52;;
35114;SDS011;21292;52.416;13.046;2022-09-21T14:07:46;1.02;;;0.52;;
35114;SDS011;21292;52.416;13.046;2022-09-21T14:10:21;0.85;;;0.35;;
35114;SDS011;21292;52.416;13.046;2022-09-21T14:12:50;0.50;;;0.50;;
35114;SDS011;21292;52.416;13.046;2022-09-21T14:15:38;0.50;;;0.50;;
35114;SDS011;21292;52.416;13.046;2022-09-21T14:18:15;2.17;;;0.52;;
35114;SDS011;21292;52.416;13.046;2022-09-21T14:26:44;0.95;;;0.55;;
35114;SDS011;21292;52.416;13.046;2022-09-21T14:29:18;0.70;;;0.60;;
35114;SDS011;21292;52.416;13.046;2022-09-21T14:31:48;0.50;;;0.50;;
35114;SDS011;21292;52.416;13.046;2022-09-21T14:34:19;2.72;;;1.40;;
35114;SDS011;21292;52.416;13.046;2022-09-21T14:36:51;0.47;;;0.45;;
35114;SDS011;21292;52.416;13.046;2022-09-21T14:39:23;0.50;;;0.50;;
35114;SDS011;21292;52.416;13.046;2022-09-21T14:41:53;1.17;;;0.60;;
35114;SDS011;21292;52.416;13.046;2022-09-21T14:44:24;1.52;;;0.70;;
35114;SDS011;21292;52.416;13.046;2022-09-21T14:46:59;1.60;;;0.50;;
35114;SDS011;21292;52.416;13.046;2022-09-21T14:49:39;0.90;;;0.52;;
35114;SDS011;21292;52.416;13.046;2022-09-21T14:52:34;0.85;;;0.85;;
35114;SDS011;21292;52.416;13.046;2022-09-21T14:55:12;1.27;;;0.60;;
35114;SDS011;21292;52.416;13.046;2022-09-21T14:57:57;0.63;;;0.60;;
35114;SDS011;21292;52.416;13.046;2022-09-21T15:00:35;1.00;;;0.70;;
35114;SDS011;21292;52.416;13.046;2022-09-21T15:03:12;0.68;;;0.68;;
35114;SDS011;21292;52.416;13.046;2022-09-21T15:06:07;0.73;;;0.60;;
35114;SDS011;21292;52.416;13.046;2022-09-21T15:08:55;0.50;;;0.50;;
35114;SDS011;21292;52.416;13.046;2022-09-21T15:11:54;0.75;;;0.50;;
35114;SDS011;21292;52.416;13.046;2022-09-21T15:14:26;0.50;;;0.50;;
35114;SDS011;21292;52.416;13.046;2022-09-21T15:16:59;0.40;;;0.40;;
35114;SDS011;21292;52.416;13.046;2022-09-21T15:19:45;1.27;;;0.52;;
35114;SDS011;21292;52.416;13.046;2022-09-21T15:22:17;0.52;;;0.50;;
35114;SDS011;21292;52.416;13.046;2022-09-21T15:24:49;3.67;;;0.60;;
35114;SDS011;21292;52.416;13.046;2022-09-21T15:27:19;1.70;;;0.40;;
35114;SDS011;21292;52.416;13.046;2022-09-21T15:29:50;0.38;;;0.38;;
35114;SDS011;21292;52.416;13.046;2022-09-21T15:32:23;1.13;;;0.40;;